METAR - Ísland

Uppfært síðast 09.02.2023 - kl. 06:45

SIGMET síðustu 6 klst.

Engin SIGMET skeyti bárust síðustu 6 klst.

METAR síðustu 3 klst

Frá og með 1. október munu brautarskilyrði ekki birtast í METAR skeytum.
Í staðinn mun ISAVIA gefa út SNOWTAM á síðunni SNOWTAM | Isavia.

Flugv.TímiSkeyti
BIAR2023-02-09 06.00METAR BIAR 090600Z VRB05KT CAVOK M07/M13 Q0999
BIAR2023-02-09 05.00METAR BIAR 090500Z VRB03KT CAVOK M06/M13 Q0997
BIAR2023-02-09 04.00METAR BIAR 090400Z VRB09KT 9999 SCT060 M05/M14 Q0995
BIEG2023-02-09 06.00METAR BIEG 090600Z 18018G28KT 9999 FEW045 SCT061 M05/M13 Q0996
BIEG2023-02-09 05.00METAR BIEG 090500Z 19017KT 9999 FEW043 BKN120 M05/M12 Q0994
BIEG2023-02-09 04.00METAR BIEG 090400Z 21017G28KT 9999 FEW042 BKN087 M05/M12 Q0992
BIKF2023-02-09 06.30METAR BIKF 090630Z 30015KT 9999 VCSH FEW020 BKN050 M04/M11 Q1007
BIKF2023-02-09 06.00METAR BIKF 090600Z 27020KT 7000 VCSH BLSN FEW023 SCT031 M05/M07 Q1006
BIKF2023-02-09 05.31METAR BIKF 090531Z 29021KT 7000 VCSH FEW023 SCT031 M05/M10 Q1005
BIKF2023-02-09 05.30METAR BIKF 090530Z 29021KT 0500 R28/P1500N VCSH FEW023 SCT031 M05/M10 Q1005
BIKF2023-02-09 05.00METAR BIKF 090500Z 30022KT 0500 R28///// -SHSN BLSN FEW004 BKN037 M06/M07 Q1005
BIKF2023-02-09 04.30METAR BIKF 090430Z 30023KT 4000 SCT039 M05/M08 Q1003
BIKF2023-02-09 04.00METAR BIKF 090400Z 31019G29KT 9000 -SHSN BLSN FEW016 BKN044 M05/M10 Q1003
BIRK2023-02-09 06.00METAR BIRK 090600Z 32018KT 9999 BKN043 M04/M11 Q1006
BIRK2023-02-09 05.00METAR BIRK 090500Z 32023KT 9999 BKN041 M04/M11 Q1004
BIRK2023-02-09 04.00METAR BIRK 090400Z 31021KT 9999 BKN044 M04/M11 Q1002

Textaspár eru skrifaðar af vakthafandi veðurfræðingi á Veðurstofu Íslands.




Aðrir tengdir vefir



Þetta vefsvæði byggir á Eplica